sensor_id;sensor_type;location;lat;lon;timestamp;pressure;altitude;pressure_sealevel;temperature;humidity
76024;BME280;64719;52.124;6.226;2023-04-24T00:00:24;99952.53;;;9.23;100.00
76024;BME280;64719;52.124;6.226;2023-04-24T00:02:50;99955.06;;;9.29;100.00
76024;BME280;64719;52.124;6.226;2023-04-24T00:05:17;99961.09;;;9.32;100.00
76024;BME280;64719;52.124;6.226;2023-04-24T00:07:44;99952.47;;;9.35;100.00
76024;BME280;64719;52.124;6.226;2023-04-24T00:10:11;99952.47;;;9.35;100.00
76024;BME280;64719;52.124;6.226;2023-04-24T00:12:39;99959.50;;;9.36;100.00
76024;BME280;64719;52.124;6.226;2023-04-24T00:15:07;99959.28;;;9.37;100.00
76024;BME280;64719;52.124;6.226;2023-04-24T00:17:34;99954.69;;;9.38;100.00
76024;BME280;64719;52.124;6.226;2023-04-24T00:20:00;99954.75;;;9.43;100.00
76024;BME280;64719;52.124;6.226;2023-04-24T00:22:30;99961.00;;;9.43;100.00
76024;BME280;64719;52.124;6.226;2023-04-24T00:24:57;99961.34;;;9.47;100.00
76024;BME280;64719;52.124;6.226;2023-04-24T00:27:23;99957.22;;;9.44;100.00
76024;BME280;64719;52.124;6.226;2023-04-24T00:29:51;99954.75;;;9.43;100.00
76024;BME280;64719;52.124;6.226;2023-04-24T00:32:18;99970.50;;;9.46;100.00
76024;BME280;64719;52.124;6.226;2023-04-24T00:34:45;99975.38;;;9.44;100.00
76024;BME280;64719;52.124;6.226;2023-04-24T00:37:11;99967.78;;;9.46;100.00
76024;BME280;64719;52.124;6.226;2023-04-24T00:39:38;99971.91;;;9.48;100.00
76024;BME280;64719;52.124;6.226;2023-04-24T00:42:04;99972.16;;;9.47;100.00
76024;BME280;64719;52.124;6.226;2023-04-24T00:44:32;99977.09;;;9.50;100.00
76024;BME280;64719;52.124;6.226;2023-04-24T00:47:00;99969.47;;;9.47;100.00
76024;BME280;64719;52.124;6.226;2023-04-24T00:49:27;99963.78;;;9.48;100.00
76024;BME280;64719;52.124;6.226;2023-04-24T00:51:53;99969.13;;;9.43;100.00
76024;BME280;64719;52.124;6.226;2023-04-24T00:54:20;99967.97;;;9.39;100.00
76024;BME280;64719;52.124;6.226;2023-04-24T00:56:46;99974.78;;;9.42;100.00
76024;BME280;64719;52.124;6.226;2023-04-24T00:59:16;99976.34;;;9.38;100.00
76024;BME280;64719;52.124;6.226;2023-04-24T01:01:43;99969.03;;;9.38;100.00
76024;BME280;64719;52.124;6.226;2023-04-24T01:04:12;99971.72;;;9.38;100.00
76024;BME280;64719;52.124;6.226;2023-04-24T01:06:39;99976.91;;;9.40;100.00
76024;BME280;64719;52.124;6.226;2023-04-24T01:09:06;99970.94;;;9.38;100.00
76024;BME280;64719;52.124;6.226;2023-04-24T01:11:34;99969.84;;;9.39;100.00
76024;BME280;64719;52.124;6.226;2023-04-24T01:14:01;99977.72;;;9.40;100.00
76024;BME280;64719;52.124;6.226;2023-04-24T01:16:27;99986.94;;;9.39;100.00
76024;BME280;64719;52.124;6.226;2023-04-24T01:18:54;99982.56;;;9.38;100.00
76024;BME280;64719;52.124;6.226;2023-04-24T01:21:23;99985.69;;;9.30;100.00
76024;BME280;64719;52.124;6.226;2023-04-24T01:23:55;99977.22;;;9.26;100.00
76024;BME280;64719;52.124;6.226;2023-04-24T01:26:22;99981.50;;;9.22;100.00
76024;BME280;64719;52.124;6.226;2023-04-24T01:28:50;99976.31;;;9.21;100.00
76024;BME280;64719;52.124;6.226;2023-04-24T01:31:17;99980.91;;;9.20;100.00
76024;BME280;64719;52.124;6.226;2023-04-24T01:33:44;99974.41;;;9.21;100.00
76024;BME280;64719;52.124;6.226;2023-04-24T01:36:11;99982.53;;;9.21;100.00
76024;BME280;64719;52.124;6.226;2023-04-24T01:38:38;99985.84;;;9.23;100.00
76024;BME280;64719;52.124;6.226;2023-04-24T01:41:06;99978.53;;;9.24;100.00
76024;BME280;64719;52.124;6.226;2023-04-24T01:43:32;99981.81;;;9.26;100.00
76024;BME280;64719;52.124;6.226;2023-04-24T01:45:59;99985.94;;;9.28;100.00
76024;BME280;64719;52.124;6.226;2023-04-24T01:48:25;99986.72;;;9.29;100.00
76024;BME280;64719;52.124;6.226;2023-04-24T01:50:52;99981.06;;;9.30;100.00
76024;BME280;64719;52.124;6.226;2023-04-24T01:53:19;99983.88;;;9.36;100.00
76024;BME280;64719;52.124;6.226;2023-04-24T01:55:45;99986.34;;;9.37;100.00
76024;BME280;64719;52.124;6.226;2023-04-24T01:58:14;99988.22;;;9.37;100.00
76024;BME280;64719;52.124;6.226;2023-04-24T02:00:40;99989.28;;;9.36;100.00
76024;BME280;64719;52.124;6.226;2023-04-24T02:03:07;99989.28;;;9.36;100.00
76024;BME280;64719;52.124;6.226;2023-04-24T02:05:33;99985.69;;;9.30;100.00
76024;BME280;64719;52.124;6.226;2023-04-24T02:08:00;99985.09;;;9.28;100.00
76024;BME280;64719;52.124;6.226;2023-04-24T02:10:26;99982.06;;;9.24;100.00
76024;BME280;64719;52.124;6.226;2023-04-24T02:12:53;99978.53;;;9.24;100.00
76024;BME280;64719;52.124;6.226;2023-04-24T02:15:21;99977.38;;;9.20;100.00
76024;BME280;64719;52.124;6.226;2023-04-24T02:17:47;99982.47;;;9.16;100.00
76024;BME280;64719;52.124;6.226;2023-04-24T02:20:14;99983.19;;;9.12;100.00
76024;BME280;64719;52.124;6.226;2023-04-24T02:22:40;99985.91;;;9.12;100.00
76024;BME280;64719;52.124;6.226;2023-04-24T02:25:07;99986.16;;;9.10;100.00
76024;BME280;64719;52.124;6.226;2023-04-24T02:27:34;99987.13;;;9.04;100.00
76024;BME280;64719;52.124;6.226;2023-04-24T02:30:01;99981.47;;;9.06;100.00
76024;BME280;64719;52.124;6.226;2023-04-24T02:32:29;99995.31;;;9.09;100.00
76024;BME280;64719;52.124;6.226;2023-04-24T02:34:56;99984.59;;;9.14;100.00
76024;BME280;64719;52.124;6.226;2023-04-24T02:37:22;99982.47;;;9.16;100.00
76024;BME280;64719;52.124;6.226;2023-04-24T02:39:49;99988.94;;;9.15;100.00
76024;BME280;64719;52.124;6.226;2023-04-24T02:42:15;99992.72;;;9.14;100.00
76024;BME280;64719;52.124;6.226;2023-04-24T02:44:42;99997.53;;;9.12;100.00
76024;BME280;64719;52.124;6.226;2023-04-24T02:47:08;100002.38;;;9.10;100.00
76024;BME280;64719;52.124;6.226;2023-04-24T02:49:36;99992.06;;;9.07;100.00
76024;BME280;64719;52.124;6.226;2023-04-24T02:52:02;99985.81;;;9.07;100.00
76024;BME280;64719;52.124;6.226;2023-04-24T02:54:29;99989.09;;;9.09;100.00
76024;BME280;64719;52.124;6.226;2023-04-24T02:56:55;99984.97;;;9.06;100.00
76024;BME280;64719;52.124;6.226;2023-04-24T02:59:22;99991.69;;;9.04;100.00
76024;BME280;64719;52.124;6.226;2023-04-24T03:01:49;99993.09;;;9.06;100.00
76024;BME280;64719;52.124;6.226;2023-04-24T03:04:16;99998.75;;;9.05;100.00
76024;BME280;64719;52.124;6.226;2023-04-24T03:06:46;99987.69;;;9.06;100.00
76024;BME280;64719;52.124;6.226;2023-04-24T03:09:13;99993.09;;;9.06;100.00
76024;BME280;64719;52.124;6.226;2023-04-24T03:11:39;99991.47;;;9.05;100.00
76024;BME280;64719;52.124;6.226;2023-04-24T03:14:06;99992.84;;;9.08;100.00
76024;BME280;64719;52.124;6.226;2023-04-24T03:16:33;99988.28;;;9.08;100.00
76024;BME280;64719;52.124;6.226;2023-04-24T03:18:59;100001.81;;;9.08;100.00
76024;BME280;64719;52.124;6.226;2023-04-24T03:21:26;99999.94;;;9.09;100.00
76024;BME280;64719;52.124;6.226;2023-04-24T03:23:54;99988.03;;;9.10;100.00
76024;BME280;64719;52.124;6.226;2023-04-24T03:26:20;99992.59;;;9.09;100.00
76024;BME280;64719;52.124;6.226;2023-04-24T03:28:49;100002.63;;;9.09;100.00
76024;BME280;64719;52.124;6.226;2023-04-24T03:31:15;100005.34;;;9.09;100.00
76024;BME280;64719;52.124;6.226;2023-04-24T03:33:42;100005.91;;;9.11;100.00
76024;BME280;64719;52.124;6.226;2023-04-24T03:36:09;100009.09;;;9.08;100.00
76024;BME280;64719;52.124;6.226;2023-04-24T03:38:35;100004.50;;;9.08;100.00
76024;BME280;64719;52.124;6.226;2023-04-24T03:41:03;100004.50;;;9.08;100.00
76024;BME280;64719;52.124;6.226;2023-04-24T03:43:29;100006.38;;;9.08;100.00
76024;BME280;64719;52.124;6.226;2023-04-24T03:45:58;100006.88;;;9.05;100.00
76024;BME280;64719;52.124;6.226;2023-04-24T03:48:25;100009.56;;;9.05;100.00
76024;BME280;64719;52.124;6.226;2023-04-24T03:50:51;100010.88;;;9.02;100.00
76024;BME280;64719;52.124;6.226;2023-04-24T03:53:17;100013.84;;;9.01;100.00
76024;BME280;64719;52.124;6.226;2023-04-24T03:55:44;100013.25;;;8.99;100.00
76024;BME280;64719;52.124;6.226;2023-04-24T03:58:12;100012.66;;;8.97;100.00
76024;BME280;64719;52.124;6.226;2023-04-24T04:00:39;100014.56;;;8.96;100.00
76024;BME280;64719;52.124;6.226;2023-04-24T04:03:06;100019.13;;;8.96;100.00
76024;BME280;64719;52.124;6.226;2023-04-24T04:05:33;100016.19;;;8.97;100.00
76024;BME280;64719;52.124;6.226;2023-04-24T04:07:59;100018.06;;;8.97;100.00
76024;BME280;64719;52.124;6.226;2023-04-24T04:10:26;100021.59;;;8.97;100.00
76024;BME280;64719;52.124;6.226;2023-04-24T04:12:52;100020.78;;;8.97;100.00
76024;BME280;64719;52.124;6.226;2023-04-24T04:15:20;100030.19;;;8.94;100.00
76024;BME280;64719;52.124;6.226;2023-04-24T04:17:46;100033.16;;;8.93;100.00
76024;BME280;64719;52.124;6.226;2023-04-24T04:20:13;100035.63;;;8.94;100.00
76024;BME280;64719;52.124;6.226;2023-04-24T04:22:40;100042.09;;;8.93;100.00
76024;BME280;64719;52.124;6.226;2023-04-24T04:25:06;100041.50;;;8.91;100.00
76024;BME280;64719;52.124;6.226;2023-04-24T04:27:33;100040.66;;;8.91;100.00
76024;BME280;64719;52.124;6.226;2023-04-24T04:30:00;100041.75;;;8.90;100.00
76024;BME280;64719;52.124;6.226;2023-04-24T04:32:31;100040.91;;;8.89;100.00
76024;BME280;64719;52.124;6.226;2023-04-24T04:34:58;100043.84;;;8.88;100.00
76024;BME280;64719;52.124;6.226;2023-04-24T04:37:28;100048.47;;;8.87;100.00
76024;BME280;64719;52.124;6.226;2023-04-24T04:39:54;100052.81;;;8.88;100.00
76024;BME280;64719;52.124;6.226;2023-04-24T04:42:21;100054.34;;;8.84;100.00
76024;BME280;64719;52.124;6.226;2023-04-24T04:44:48;100046.25;;;8.84;100.00
76024;BME280;64719;52.124;6.226;2023-04-24T04:47:15;100056.47;;;8.82;100.00
76024;BME280;64719;52.124;6.226;2023-04-24T04:49:43;100062.13;;;8.81;100.00
76024;BME280;64719;52.124;6.226;2023-04-24T04:52:10;100061.44;;;8.74;100.00
76024;BME280;64719;52.124;6.226;2023-04-24T04:54:36;100058.97;;;8.72;100.00
76024;BME280;64719;52.124;6.226;2023-04-24T04:57:03;100061.91;;;8.71;100.00
76024;BME280;64719;52.124;6.226;2023-04-24T04:59:29;100055.31;;;8.67;100.00
76024;BME280;64719;52.124;6.226;2023-04-24T05:01:56;100058.03;;;8.67;100.00
76024;BME280;64719;52.124;6.226;2023-04-24T05:04:22;100055.09;;;8.68;100.00
76024;BME280;64719;52.124;6.226;2023-04-24T05:06:50;100053.22;;;8.69;100.00
76024;BME280;64719;52.124;6.226;2023-04-24T05:09:17;100058.84;;;8.67;100.00
76024;BME280;64719;52.124;6.226;2023-04-24T05:11:44;100055.44;;;8.72;100.00
76024;BME280;64719;52.124;6.226;2023-04-24T05:14:10;100058.16;;;8.72;100.00
76024;BME280;64719;52.124;6.226;2023-04-24T05:16:37;100062.72;;;8.71;100.00
76024;BME280;64719;52.124;6.226;2023-04-24T05:19:04;100061.53;;;8.79;100.00
76024;BME280;64719;52.124;6.226;2023-04-24T05:21:31;100063.91;;;8.75;100.00
76024;BME280;64719;52.124;6.226;2023-04-24T05:23:58;100070.94;;;8.76;100.00
76024;BME280;64719;52.124;6.226;2023-04-24T05:26:25;100068.72;;;8.73;100.00
76024;BME280;64719;52.124;6.226;2023-04-24T05:28:52;100065.53;;;8.76;100.00
76024;BME280;64719;52.124;6.226;2023-04-24T05:31:18;100071.78;;;8.77;100.00
76024;BME280;64719;52.124;6.226;2023-04-24T05:33:45;100071.53;;;8.78;100.00
76024;BME280;64719;52.124;6.226;2023-04-24T05:36:11;100064.22;;;8.79;100.00
76024;BME280;64719;52.124;6.226;2023-04-24T05:38:38;100078.34;;;8.81;100.00
76024;BME280;64719;52.124;6.226;2023-04-24T05:41:06;100081.88;;;8.81;100.00
76024;BME280;64719;52.124;6.226;2023-04-24T05:43:32;100087.53;;;8.80;100.00
76024;BME280;64719;52.124;6.226;2023-04-24T05:45:59;100086.47;;;8.81;100.00
76024;BME280;64719;52.124;6.226;2023-04-24T05:48:25;100089.75;;;8.83;100.00
76024;BME280;64719;52.124;6.226;2023-04-24T05:50:52;100088.22;;;8.87;100.00
76024;BME280;64719;52.124;6.226;2023-04-24T05:53:18;100084.34;;;8.83;100.00
76024;BME280;64719;52.124;6.226;2023-04-24T05:55:45;100088.09;;;8.82;100.00
76024;BME280;64719;52.124;6.226;2023-04-24T05:58:14;100090.47;;;8.78;100.00
76024;BME280;64719;52.124;6.226;2023-04-24T06:00:40;100105.28;;;8.76;100.00
76024;BME280;64719;52.124;6.226;2023-04-24T06:03:08;100111.63;;;8.70;100.00
76024;BME280;64719;52.124;6.226;2023-04-24T06:05:35;100112.13;;;8.67;100.00
76024;BME280;64719;52.124;6.226;2023-04-24T06:08:01;100118.72;;;8.71;100.00
76024;BME280;64719;52.124;6.226;2023-04-24T06:10:28;100117.16;;;8.75;100.00
76024;BME280;64719;52.124;6.226;2023-04-24T06:12:54;100125.06;;;8.76;100.00
76024;BME280;64719;52.124;6.226;2023-04-24T06:15:27;100117.63;;;8.83;100.00
76024;BME280;64719;52.124;6.226;2023-04-24T06:17:54;100123.63;;;8.85;100.00
76024;BME280;64719;52.124;6.226;2023-04-24T06:20:21;100125.25;;;8.86;100.00
76024;BME280;64719;52.124;6.226;2023-04-24T06:22:47;100126.69;;;8.89;100.00
76024;BME280;64719;52.124;6.226;2023-04-24T06:25:14;100132.91;;;8.89;100.00
76024;BME280;64719;52.124;6.226;2023-04-24T06:27:40;100133.00;;;8.94;100.00
76024;BME280;64719;52.124;6.226;2023-04-24T06:30:08;100131.38;;;8.93;100.00
76024;BME280;64719;52.124;6.226;2023-04-24T06:32:36;100137.13;;;8.97;100.00
76024;BME280;64719;52.124;6.226;2023-04-24T06:35:03;100151.34;;;8.92;100.00
76024;BME280;64719;52.124;6.226;2023-04-24T06:37:30;100151.75;;;8.84;100.00
76024;BME280;64719;52.124;6.226;2023-04-24T06:39:57;100153.38;;;8.85;100.00
76024;BME280;64719;52.124;6.226;2023-04-24T06:42:23;100153.25;;;8.80;100.00
76024;BME280;64719;52.124;6.226;2023-04-24T06:44:50;100164.69;;;8.82;100.00
76024;BME280;64719;52.124;6.226;2023-04-24T06:47:16;100168.53;;;8.86;100.00
76024;BME280;64719;52.124;6.226;2023-04-24T06:49:45;100159.88;;;8.84;100.00
76024;BME280;64719;52.124;6.226;2023-04-24T06:52:11;100168.94;;;8.78;100.00
76024;BME280;64719;52.124;6.226;2023-04-24T06:54:38;100165.38;;;8.78;100.00
76024;BME280;64719;52.124;6.226;2023-04-24T06:57:04;100167.25;;;8.77;100.00
76024;BME280;64719;52.124;6.226;2023-04-24T06:59:31;100168.31;;;8.88;100.00
76024;BME280;64719;52.124;6.226;2023-04-24T07:01:57;100175.50;;;8.82;100.00
76024;BME280;64719;52.124;6.226;2023-04-24T07:04:24;100174.44;;;8.83;100.00
76024;BME280;64719;52.124;6.226;2023-04-24T07:06:52;100184.19;;;8.96;100.00
76024;BME280;64719;52.124;6.226;2023-04-24T07:09:21;100190.63;;;9.06;100.00
76024;BME280;64719;52.124;6.226;2023-04-24T07:11:49;100183.47;;;9.00;100.00
76024;BME280;64719;52.124;6.226;2023-04-24T07:14:15;100191.34;;;9.02;100.00
76024;BME280;64719;52.124;6.226;2023-04-24T07:16:42;100198.63;;;9.13;100.00
76024;BME280;64719;52.124;6.226;2023-04-24T07:19:09;100197.44;;;9.20;100.00
76024;BME280;64719;52.124;6.226;2023-04-24T07:21:35;100206.56;;;9.43;100.00
76024;BME280;64719;52.124;6.226;2023-04-24T07:24:03;100210.78;;;9.50;100.00
76024;BME280;64719;52.124;6.226;2023-04-24T07:26:30;100205.84;;;9.47;100.00
76024;BME280;64719;52.124;6.226;2023-04-24T07:28:57;100208.72;;;9.69;100.00
76024;BME280;64719;52.124;6.226;2023-04-24T07:31:23;100215.88;;;9.75;100.00
76024;BME280;64719;52.124;6.226;2023-04-24T07:33:50;100220.41;;;9.69;100.00
76024;BME280;64719;52.124;6.226;2023-04-24T07:36:16;100217.53;;;9.76;100.00
76024;BME280;64719;52.124;6.226;2023-04-24T07:38:44;100226.38;;;9.71;100.00
76024;BME280;64719;52.124;6.226;2023-04-24T07:41:12;100229.38;;;9.58;100.00
76024;BME280;64719;52.124;6.226;2023-04-24T07:43:38;100230.22;;;9.47;100.00
76024;BME280;64719;52.124;6.226;2023-04-24T07:46:05;100242.59;;;9.43;100.00
76024;BME280;64719;52.124;6.226;2023-04-24T07:48:32;100236.50;;;9.36;100.00
76024;BME280;64719;52.124;6.226;2023-04-24T07:50:58;100244.16;;;9.27;100.00
76024;BME280;64719;52.124;6.226;2023-04-24T07:53:25;100244.63;;;9.36;100.00
76024;BME280;64719;52.124;6.226;2023-04-24T07:55:51;100252.75;;;9.24;100.00
76024;BME280;64719;52.124;6.226;2023-04-24T07:58:19;100254.28;;;9.20;100.00
76024;BME280;64719;52.124;6.226;2023-04-24T08:00:46;100254.06;;;9.22;100.00
76024;BME280;64719;52.124;6.226;2023-04-24T08:03:13;100258.41;;;9.23;100.00
76024;BME280;64719;52.124;6.226;2023-04-24T08:05:40;100263.72;;;9.18;100.00
76024;BME280;64719;52.124;6.226;2023-04-24T08:08:08;100270.16;;;9.17;100.00
76024;BME280;64719;52.124;6.226;2023-04-24T08:10:34;100273.72;;;9.17;100.00
76024;BME280;64719;52.124;6.226;2023-04-24T08:13:01;100280.75;;;9.18;100.00
76024;BME280;64719;52.124;6.226;2023-04-24T08:15:29;100291.03;;;9.16;100.00
76024;BME280;64719;52.124;6.226;2023-04-24T08:17:55;100283.97;;;9.27;100.00
76024;BME280;64719;52.124;6.226;2023-04-24T08:20:23;100299.50;;;9.32;100.00
76024;BME280;64719;52.124;6.226;2023-04-24T08:22:50;100302.06;;;9.26;100.00
76024;BME280;64719;52.124;6.226;2023-04-24T08:25:16;100313.75;;;9.27;100.00
76024;BME280;64719;52.124;6.226;2023-04-24T08:27:44;100316.41;;;9.15;100.00
76024;BME280;64719;52.124;6.226;2023-04-24T08:30:11;100341.72;;;9.09;100.00
76024;BME280;64719;52.124;6.226;2023-04-24T08:32:39;100333.50;;;9.04;100.00
76024;BME280;64719;52.124;6.226;2023-04-24T08:35:06;100345.59;;;8.90;100.00
76024;BME280;64719;52.124;6.226;2023-04-24T08:37:34;100351.94;;;8.84;100.00
76024;BME280;64719;52.124;6.226;2023-04-24T08:40:06;100352.50;;;8.86;100.00
76024;BME280;64719;52.124;6.226;2023-04-24T08:42:38;100360.38;;;8.88;100.00
76024;BME280;64719;52.124;6.226;2023-04-24T08:45:06;100371.56;;;8.80;100.00
76024;BME280;64719;52.124;6.226;2023-04-24T08:47:34;100375.91;;;8.81;100.00
76024;BME280;64719;52.124;6.226;2023-04-24T08:50:03;100387.69;;;8.86;100.00
76024;BME280;64719;52.124;6.226;2023-04-24T08:52:32;100384.25;;;8.79;100.00
76024;BME280;64719;52.124;6.226;2023-04-24T08:55:00;100391.19;;;8.75;100.00
76024;BME280;64719;52.124;6.226;2023-04-24T08:57:27;100398.84;;;8.78;100.00
76024;BME280;64719;52.124;6.226;2023-04-24T08:59:55;100404.84;;;8.80;100.00
76024;BME280;64719;52.124;6.226;2023-04-24T09:02:23;100407.53;;;8.80;100.00
76024;BME280;64719;52.124;6.226;2023-04-24T09:04:50;100418.88;;;8.89;100.00
76024;BME280;64719;52.124;6.226;2023-04-24T09:07:19;100414.97;;;8.85;100.00
76024;BME280;64719;52.124;6.226;2023-04-24T09:09:46;100422.72;;;8.81;100.00
76024;BME280;64719;52.124;6.226;2023-04-24T09:12:14;100416.03;;;8.84;100.00
76024;BME280;64719;52.124;6.226;2023-04-24T09:14:40;100436.59;;;8.85;100.00
76024;BME280;64719;52.124;6.226;2023-04-24T09:17:10;100444.31;;;8.99;100.00
76024;BME280;64719;52.124;6.226;2023-04-24T09:19:36;100450.50;;;8.88;100.00
76024;BME280;64719;52.124;6.226;2023-04-24T09:22:04;100451.97;;;9.02;100.00
76024;BME280;64719;52.124;6.226;2023-04-24T09:24:34;100453.50;;;8.98;100.00
76024;BME280;64719;52.124;6.226;2023-04-24T09:27:00;100465.56;;;8.84;100.00
76024;BME280;64719;52.124;6.226;2023-04-24T09:29:28;100474.59;;;8.78;100.00
76024;BME280;64719;52.124;6.226;2023-04-24T09:31:55;100475.16;;;8.80;100.00
76024;BME280;64719;52.124;6.226;2023-04-24T09:34:22;100478.28;;;8.95;100.00
76024;BME280;64719;52.124;6.226;2023-04-24T09:36:50;100495.59;;;8.94;100.00
76024;BME280;64719;52.124;6.226;2023-04-24T09:39:17;100492.38;;;8.86;100.00
76024;BME280;64719;52.124;6.226;2023-04-24T09:41:46;100494.81;;;9.05;100.00
76024;BME280;64719;52.124;6.226;2023-04-24T09:44:15;100495.03;;;9.04;100.00
76024;BME280;64719;52.124;6.226;2023-04-24T09:46:42;100508.84;;;8.84;100.00
76024;BME280;64719;52.124;6.226;2023-04-24T09:49:10;100513.16;;;8.74;100.00
76024;BME280;64719;52.124;6.226;2023-04-24T09:51:37;100526.59;;;8.62;100.00
76024;BME280;64719;52.124;6.226;2023-04-24T09:54:13;100521.97;;;8.51;100.00
76024;BME280;64719;52.124;6.226;2023-04-24T09:56:42;100530.06;;;8.69;100.00
76024;BME280;64719;52.124;6.226;2023-04-24T09:59:11;100538.97;;;8.70;100.00
76024;BME280;64719;52.124;6.226;2023-04-24T10:01:37;100545.41;;;8.57;100.00
76024;BME280;64719;52.124;6.226;2023-04-24T10:04:15;100536.75;;;8.49;100.00
76024;BME280;64719;52.124;6.226;2023-04-24T10:06:42;100559.03;;;8.26;100.00
76024;BME280;64719;52.124;6.226;2023-04-24T10:09:09;100549.50;;;8.24;100.00
76024;BME280;64719;52.124;6.226;2023-04-24T10:11:37;100568.81;;;8.27;100.00
76024;BME280;64719;52.124;6.226;2023-04-24T10:14:03;100546.81;;;8.24;100.00
76024;BME280;64719;52.124;6.226;2023-04-24T10:16:32;100566.47;;;8.49;100.00
76024;BME280;64719;52.124;6.226;2023-04-24T10:18:59;100574.97;;;8.70;100.00
76024;BME280;64719;52.124;6.226;2023-04-24T10:21:26;100580.59;;;8.87;100.00
76024;BME280;64719;52.124;6.226;2023-04-24T10:23:53;100580.78;;;9.21;99.54
76024;BME280;64719;52.124;6.226;2023-04-24T10:26:21;100580.47;;;9.29;98.08
76024;BME280;64719;52.124;6.226;2023-04-24T10:28:48;100574.84;;;9.43;97.17
76024;BME280;64719;52.124;6.226;2023-04-24T10:31:17;100580.13;;;9.79;95.94
76024;BME280;64719;52.124;6.226;2023-04-24T10:33:45;100577.63;;;9.66;95.52
76024;BME280;64719;52.124;6.226;2023-04-24T10:36:13;100600.38;;;9.35;95.51
76024;BME280;64719;52.124;6.226;2023-04-24T10:38:42;100604.56;;;9.19;96.08
76024;BME280;64719;52.124;6.226;2023-04-24T10:41:10;100607.25;;;9.19;96.26
76024;BME280;64719;52.124;6.226;2023-04-24T10:43:41;100615.63;;;9.48;94.56
76024;BME280;64719;52.124;6.226;2023-04-24T10:46:08;100614.66;;;9.83;93.31
76024;BME280;64719;52.124;6.226;2023-04-24T10:48:42;100620.97;;;11.27;90.39
76024;BME280;64719;52.124;6.226;2023-04-24T10:51:12;100614.53;;;12.55;84.53
76024;BME280;64719;52.124;6.226;2023-04-24T10:53:40;100622.66;;;12.72;78.58
76024;BME280;64719;52.124;6.226;2023-04-24T10:56:07;100623.38;;;13.49;74.21
76024;BME280;64719;52.124;6.226;2023-04-24T10:58:40;100623.25;;;14.50;74.37
76024;BME280;64719;52.124;6.226;2023-04-24T11:01:23;100634.63;;;14.05;71.71
76024;BME280;64719;52.124;6.226;2023-04-24T11:03:53;100633.16;;;13.66;70.76
76024;BME280;64719;52.124;6.226;2023-04-24T11:06:28;100650.41;;;14.03;69.90
76024;BME280;64719;52.124;6.226;2023-04-24T11:09:02;100657.13;;;14.49;68.73
76024;BME280;64719;52.124;6.226;2023-04-24T11:11:29;100659.34;;;13.03;71.92
76024;BME280;64719;52.124;6.226;2023-04-24T11:14:04;100659.97;;;12.38;75.63
76024;BME280;64719;52.124;6.226;2023-04-24T11:16:33;100656.31;;;11.83;75.30
76024;BME280;64719;52.124;6.226;2023-04-24T11:19:01;100659.47;;;11.92;76.79
76024;BME280;64719;52.124;6.226;2023-04-24T11:21:36;100671.44;;;12.73;76.70
76024;BME280;64719;52.124;6.226;2023-04-24T11:24:29;100669.06;;;12.27;75.26
76024;BME280;64719;52.124;6.226;2023-04-24T11:26:58;100674.31;;;12.34;77.11
76024;BME280;64719;52.124;6.226;2023-04-24T11:29:46;100669.22;;;12.04;77.81
76024;BME280;64719;52.124;6.226;2023-04-24T11:32:23;100674.88;;;10.95;79.59
76024;BME280;64719;52.124;6.226;2023-04-24T11:34:51;100667.78;;;11.06;79.65
76024;BME280;64719;52.124;6.226;2023-04-24T11:37:21;100673.06;;;11.92;79.89
76024;BME280;64719;52.124;6.226;2023-04-24T11:39:50;100670.31;;;12.36;76.88
76024;BME280;64719;52.124;6.226;2023-04-24T11:42:18;100676.06;;;13.11;76.14
76024;BME280;64719;52.124;6.226;2023-04-24T11:44:46;100682.31;;;12.73;74.65
76024;BME280;64719;52.124;6.226;2023-04-24T11:47:12;100681.75;;;12.22;75.75
76024;BME280;64719;52.124;6.226;2023-04-24T11:49:39;100690.47;;;11.00;77.17
76024;BME280;64719;52.124;6.226;2023-04-24T11:52:06;100693.66;;;10.74;79.17
76024;BME280;64719;52.124;6.226;2023-04-24T11:54:33;100708.19;;;10.79;80.24
76024;BME280;64719;52.124;6.226;2023-04-24T11:57:04;100715.00;;;10.47;78.25
76024;BME280;64719;52.124;6.226;2023-04-24T11:59:35;100724.31;;;10.40;78.56
76024;BME280;64719;52.124;6.226;2023-04-24T12:02:01;100729.53;;;10.12;79.69
76024;BME280;64719;52.124;6.226;2023-04-24T12:04:38;100736.50;;;10.08;81.13
76024;BME280;64719;52.124;6.226;2023-04-24T12:07:05;100746.38;;;10.43;82.14
76024;BME280;64719;52.124;6.226;2023-04-24T12:09:45;100738.34;;;10.37;81.74
76024;BME280;64719;52.124;6.226;2023-04-24T12:12:12;100749.06;;;10.02;82.70
76024;BME280;64719;52.124;6.226;2023-04-24T12:14:52;100738.09;;;10.27;83.06
76024;BME280;64719;52.124;6.226;2023-04-24T12:17:24;100746.59;;;11.34;80.70
76024;BME280;64719;52.124;6.226;2023-04-24T12:19:51;100740.56;;;12.56;74.93
76024;BME280;64719;52.124;6.226;2023-04-24T12:22:18;100731.81;;;12.70;71.29
76024;BME280;64719;52.124;6.226;2023-04-24T12:25:03;100738.44;;;13.29;69.65
76024;BME280;64719;52.124;6.226;2023-04-24T12:27:31;100744.38;;;12.88;69.90
76024;BME280;64719;52.124;6.226;2023-04-24T12:29:59;100740.28;;;13.67;69.38
76024;BME280;64719;52.124;6.226;2023-04-24T12:32:26;100755.97;;;14.03;67.83
76024;BME280;64719;52.124;6.226;2023-04-24T12:34:54;100747.25;;;12.98;69.55
76024;BME280;64719;52.124;6.226;2023-04-24T12:37:20;100745.41;;;12.21;72.82
76024;BME280;64719;52.124;6.226;2023-04-24T12:40:08;100758.72;;;11.78;75.89
76024;BME280;64719;52.124;6.226;2023-04-24T12:42:41;100754.31;;;11.14;77.03
76024;BME280;64719;52.124;6.226;2023-04-24T12:45:08;100769.44;;;11.22;77.69
76024;BME280;64719;52.124;6.226;2023-04-24T12:47:34;100762.84;;;10.94;77.94
76024;BME280;64719;52.124;6.226;2023-04-24T12:50:02;100772.13;;;10.75;79.47
76024;BME280;64719;52.124;6.226;2023-04-24T12:52:29;100773.44;;;10.84;79.83
76024;BME280;64719;52.124;6.226;2023-04-24T12:54:57;100767.41;;;11.05;80.52